sensor_id;sensor_type;location;lat;lon;timestamp;temperature;humidity
7540;DHT22;3811;49.006;12.076;2022-08-21T18:09:34;20.20;99.90
7540;DHT22;3811;49.006;12.076;2022-08-21T18:12:02;20.10;99.90
7540;DHT22;3811;49.006;12.076;2022-08-21T18:14:33;20.00;99.90
7540;DHT22;3811;49.006;12.076;2022-08-21T18:17:06;19.90;99.90
7540;DHT22;3811;49.006;12.076;2022-08-21T18:24:36;19.70;1.00
7540;DHT22;3811;49.006;12.076;2022-08-21T18:27:05;19.60;1.00
7540;DHT22;3811;49.006;12.076;2022-08-21T18:32:06;19.40;1.00
7540;DHT22;3811;49.006;12.076;2022-08-21T18:34:37;19.30;1.00
7540;DHT22;3811;49.006;12.076;2022-08-21T18:42:06;19.10;31.80
7540;DHT22;3811;49.006;12.076;2022-08-21T18:44:35;19.00;99.90
7540;DHT22;3811;49.006;12.076;2022-08-21T18:47:04;18.90;99.90
7540;DHT22;3811;49.006;12.076;2022-08-21T18:49:34;18.80;99.90
7540;DHT22;3811;49.006;12.076;2022-08-21T18:59:27;18.60;99.90
7540;DHT22;3811;49.006;12.076;2022-08-21T19:01:54;18.60;99.90
7540;DHT22;3811;49.006;12.076;2022-08-21T19:14:14;18.30;99.90
7540;DHT22;3811;49.006;12.076;2022-08-21T19:16:42;18.40;1.00
7540;DHT22;3811;49.006;12.076;2022-08-21T19:19:15;18.30;99.90
7540;DHT22;3811;49.006;12.076;2022-08-21T19:24:12;18.40;99.90
7540;DHT22;3811;49.006;12.076;2022-08-21T19:29:08;18.30;1.00
7540;DHT22;3811;49.006;12.076;2022-08-21T19:31:45;18.30;99.90
7540;DHT22;3811;49.006;12.076;2022-08-21T19:34:14;18.20;99.90
7540;DHT22;3811;49.006;12.076;2022-08-21T19:39:11;18.00;1.00
7540;DHT22;3811;49.006;12.076;2022-08-21T19:41:41;18.00;1.00
7540;DHT22;3811;49.006;12.076;2022-08-21T19:44:13;17.90;99.90
7540;DHT22;3811;49.006;12.076;2022-08-21T19:46:42;17.90;1.00
7540;DHT22;3811;49.006;12.076;2022-08-21T19:49:13;17.80;1.00
7540;DHT22;3811;49.006;12.076;2022-08-21T19:51:43;17.80;1.00
7540;DHT22;3811;49.006;12.076;2022-08-21T19:54:14;17.80;1.00
7540;DHT22;3811;49.006;12.076;2022-08-21T20:09:03;17.60;1.00
7540;DHT22;3811;49.006;12.076;2022-08-21T20:11:35;17.50;1.00
7540;DHT22;3811;49.006;12.076;2022-08-21T20:14:04;17.50;1.00
7540;DHT22;3811;49.006;12.076;2022-08-21T20:21:31;17.20;7.40
7540;DHT22;3811;49.006;12.076;2022-08-21T20:33:50;17.10;99.90
7540;DHT22;3811;49.006;12.076;2022-08-21T20:43:42;17.10;99.90
7540;DHT22;3811;49.006;12.076;2022-08-21T20:48:38;17.10;99.90
7540;DHT22;3811;49.006;12.076;2022-08-21T20:51:07;17.10;99.90
7540;DHT22;3811;49.006;12.076;2022-08-21T20:53:41;17.00;99.90
7540;DHT22;3811;49.006;12.076;2022-08-21T20:56:14;17.00;99.90
7540;DHT22;3811;49.006;12.076;2022-08-21T20:58:49;16.90;99.90
7540;DHT22;3811;49.006;12.076;2022-08-21T21:03:52;16.70;1.00
7540;DHT22;3811;49.006;12.076;2022-08-21T21:06:23;16.60;1.00
7540;DHT22;3811;49.006;12.076;2022-08-21T21:11:25;16.60;1.00
7540;DHT22;3811;49.006;12.076;2022-08-21T21:13:59;16.60;1.00
7540;DHT22;3811;49.006;12.076;2022-08-21T21:16:32;16.60;1.00
7540;DHT22;3811;49.006;12.076;2022-08-21T21:19:05;16.60;1.00
7540;DHT22;3811;49.006;12.076;2022-08-21T21:21:38;16.40;91.70
7540;DHT22;3811;49.006;12.076;2022-08-21T21:24:11;16.50;9.30
7540;DHT22;3811;49.006;12.076;2022-08-21T21:26:46;16.50;11.70
7540;DHT22;3811;49.006;12.076;2022-08-21T21:29:18;16.50;54.80
7540;DHT22;3811;49.006;12.076;2022-08-21T21:36:43;16.40;99.90
7540;DHT22;3811;49.006;12.076;2022-08-21T21:39:19;16.40;1.00
7540;DHT22;3811;49.006;12.076;2022-08-21T21:41:53;16.50;1.00
7540;DHT22;3811;49.006;12.076;2022-08-21T21:44:31;16.40;99.90
7540;DHT22;3811;49.006;12.076;2022-08-21T21:47:07;16.30;1.00
7540;DHT22;3811;49.006;12.076;2022-08-21T21:49:57;16.30;1.00
7540;DHT22;3811;49.006;12.076;2022-08-21T21:52:47;16.30;99.90
7540;DHT22;3811;49.006;12.076;2022-08-21T21:55:28;16.30;99.90
7540;DHT22;3811;49.006;12.076;2022-08-21T21:58:08;16.30;99.90
7540;DHT22;3811;49.006;12.076;2022-08-21T22:00:45;16.30;1.00
7540;DHT22;3811;49.006;12.076;2022-08-21T22:03:19;18.20;1.00
7540;DHT22;3811;49.006;12.076;2022-08-21T22:05:53;16.20;63.00
7540;DHT22;3811;49.006;12.076;2022-08-21T22:08:29;16.20;1.00
7540;DHT22;3811;49.006;12.076;2022-08-21T22:11:02;16.20;99.90
7540;DHT22;3811;49.006;12.076;2022-08-21T22:13:41;16.10;1.00
7540;DHT22;3811;49.006;12.076;2022-08-21T22:18:41;16.10;1.00
7540;DHT22;3811;49.006;12.076;2022-08-21T22:21:12;16.10;1.00
7540;DHT22;3811;49.006;12.076;2022-08-21T22:23:42;16.00;99.90
7540;DHT22;3811;49.006;12.076;2022-08-21T22:26:13;16.00;5.40
7540;DHT22;3811;49.006;12.076;2022-08-21T22:28:46;16.00;1.00
7540;DHT22;3811;49.006;12.076;2022-08-21T22:31:17;16.00;1.00
7540;DHT22;3811;49.006;12.076;2022-08-21T22:34:01;16.00;29.50
7540;DHT22;3811;49.006;12.076;2022-08-21T22:41:27;15.90;1.00
7540;DHT22;3811;49.006;12.076;2022-08-21T22:46:30;15.80;99.90
7540;DHT22;3811;49.006;12.076;2022-08-21T22:49:04;15.70;99.90
7540;DHT22;3811;49.006;12.076;2022-08-21T22:54:03;15.80;99.90
7540;DHT22;3811;49.006;12.076;2022-08-21T22:56:37;15.70;1.00
7540;DHT22;3811;49.006;12.076;2022-08-21T22:59:21;15.70;1.00
7540;DHT22;3811;49.006;12.076;2022-08-21T23:04:23;15.70;1.00
7540;DHT22;3811;49.006;12.076;2022-08-21T23:06:52;15.60;1.00
7540;DHT22;3811;49.006;12.076;2022-08-21T23:09:29;15.60;99.90
7540;DHT22;3811;49.006;12.076;2022-08-21T23:11:59;15.50;1.00
7540;DHT22;3811;49.006;12.076;2022-08-21T23:14:28;15.60;99.90
7540;DHT22;3811;49.006;12.076;2022-08-21T23:17:03;15.60;99.90
7540;DHT22;3811;49.006;12.076;2022-08-21T23:22:38;15.60;1.00
7540;DHT22;3811;49.006;12.076;2022-08-21T23:25:23;15.50;62.80
7540;DHT22;3811;49.006;12.076;2022-08-21T23:28:00;15.50;99.90
7540;DHT22;3811;49.006;12.076;2022-08-21T23:30:40;15.50;4.20
7540;DHT22;3811;49.006;12.076;2022-08-21T23:33:20;15.40;24.00
7540;DHT22;3811;49.006;12.076;2022-08-21T23:35:58;15.40;99.90
7540;DHT22;3811;49.006;12.076;2022-08-21T23:41:38;15.40;99.90
7540;DHT22;3811;49.006;12.076;2022-08-21T23:46:51;15.40;94.50
7540;DHT22;3811;49.006;12.076;2022-08-21T23:49:42;15.50;99.90
7540;DHT22;3811;49.006;12.076;2022-08-21T23:54:54;15.50;99.90
7540;DHT22;3811;49.006;12.076;2022-08-21T23:57:44;15.60;1.00
